Time,TemperatureF,DewpointF,PressureIn,WindDirection,WindDirectionDegrees,WindSpeedMPH,WindSpeedGustMPH,Humidity,HourlyPrecipIn,Conditions,Clouds,dailyrainin,SoftwareType,DateUTC
2013-05-29 00:02:00,63.0,55.0,29.67,WNW,288,1.0,3.0,76,0.00,,,0.00,,2013-05-28 22:02:00,
2013-05-29 00:12:00,62.0,54.0,29.67,NW,323,3.0,4.0,76,0.00,,,0.00,,2013-05-28 22:12:00,
2013-05-29 00:22:00,62.0,54.0,29.67,NW,323,3.0,4.0,76,0.00,,,0.00,,2013-05-28 22:22:00,
2013-05-29 00:32:00,62.0,54.0,29.67,NW,323,3.0,4.0,76,0.00,,,0.00,,2013-05-28 22:32:00,
2013-05-29 00:42:00,62.0,52.0,29.66,West,280,0.0,7.0,71,0.00,,,0.00,,2013-05-28 22:42:00,
2013-05-29 00:52:00,62.0,52.0,29.66,West,280,0.0,7.0,71,0.00,,,0.00,,2013-05-28 22:52:00,
2013-05-29 01:02:00,62.0,52.0,29.65,West,281,2.0,3.0,71,0.00,,,0.00,,2013-05-28 23:02:00,
2013-05-29 01:11:00,62.0,51.0,29.65,WNW,288,2.0,3.0,68,0.00,,,0.00,,2013-05-28 23:11:00,
2013-05-29 01:21:00,62.0,51.0,29.65,WNW,288,2.0,3.0,68,0.00,,,0.00,,2013-05-28 23:21:00,
2013-05-29 01:32:00,62.0,51.0,29.65,WNW,288,2.0,3.0,68,0.00,,,0.00,,2013-05-28 23:32:00,
2013-05-29 01:41:00,62.0,51.0,29.65,WNW,288,2.0,3.0,68,0.00,,,0.00,,2013-05-28 23:41:00,
2013-05-29 01:52:00,62.0,48.0,29.66,WNW,300,5.0,9.0,61,0.00,,,0.00,,2013-05-28 23:52:00,
2013-05-29 02:01:00,62.0,51.0,29.66,WNW,287,4.0,10.0,67,0.00,,,0.00,,2013-05-29 00:01:00,
2013-05-29 02:11:00,62.0,51.0,29.66,WNW,287,4.0,10.0,67,0.00,,,0.00,,2013-05-29 00:11:00,
2013-05-29 02:21:00,62.0,52.0,29.66,West,281,3.0,10.0,71,0.00,,,0.00,,2013-05-29 00:21:00,
2013-05-29 02:32:00,61.0,53.0,29.65,NW,306,8.0,13.0,74,0.00,,,0.00,,2013-05-29 00:32:00,
2013-05-29 02:41:00,61.0,53.0,29.65,NW,306,8.0,13.0,74,0.00,,,0.00,,2013-05-29 00:41:00,
2013-05-29 02:51:00,61.0,53.0,29.65,NW,311,6.0,13.0,75,0.00,,,0.00,,2013-05-29 00:51:00,
2013-05-29 03:01:00,61.0,53.0,29.65,NW,311,6.0,13.0,75,0.00,,,0.00,,2013-05-29 01:01:00,
2013-05-29 03:11:00,62.0,50.0,29.66,WNW,299,5.0,16.0,64,0.00,,,0.00,,2013-05-29 01:11:00,
2013-05-29 03:21:00,62.0,50.0,29.66,WNW,299,5.0,16.0,64,0.00,,,0.00,,2013-05-29 01:21:00,
2013-05-29 03:32:00,61.0,50.0,29.66,NW,315,4.0,13.0,68,0.00,,,0.00,,2013-05-29 01:32:00,
2013-05-29 03:42:00,61.0,50.0,29.66,NW,315,4.0,13.0,68,0.00,,,0.00,,2013-05-29 01:42:00,
2013-05-29 03:52:00,60.0,51.0,29.66,WNW,290,6.0,11.0,72,0.00,,,0.00,,2013-05-29 01:52:00,
2013-05-29 04:02:00,60.0,51.0,29.66,WNW,290,6.0,11.0,72,0.00,,,0.00,,2013-05-29 02:02:00,
2013-05-29 04:11:00,60.0,52.0,29.66,WNW,289,8.0,14.0,76,0.00,,,0.00,,2013-05-29 02:11:00,
2013-05-29 04:21:00,60.0,52.0,29.66,WNW,289,8.0,14.0,76,0.00,,,0.00,,2013-05-29 02:21:00,
2013-05-29 04:31:00,60.0,51.0,29.66,NW,309,4.0,13.0,73,0.00,,,0.00,,2013-05-29 02:31:00,
2013-05-29 04:42:00,61.0,50.0,29.66,WNW,292,5.0,13.0,68,0.00,,,0.00,,2013-05-29 02:42:00,
2013-05-29 04:51:00,61.0,50.0,29.66,WNW,292,5.0,13.0,68,0.00,,,0.00,,2013-05-29 02:51:00,
2013-05-29 05:01:00,61.0,50.0,29.66,WNW,292,5.0,13.0,68,0.00,,,0.00,,2013-05-29 03:01:00,
2013-05-29 05:11:00,61.0,50.0,29.66,WNW,292,5.0,13.0,68,0.00,,,0.00,,2013-05-29 03:11:00,
2013-05-29 05:21:00,60.0,51.0,29.67,WNW,290,4.0,10.0,71,0.00,,,0.00,,2013-05-29 03:21:00,
2013-05-29 05:32:00,60.0,51.0,29.67,NW,314,7.0,10.0,72,0.00,,,0.00,,2013-05-29 03:32:00,
2013-05-29 05:43:00,60.0,51.0,29.67,NW,314,7.0,10.0,72,0.00,,,0.00,,2013-05-29 03:43:00,
2013-05-29 05:53:00,60.0,52.0,29.67,NNW,343,4.0,12.0,74,0.00,,,0.00,,2013-05-29 03:53:00,
2013-05-29 06:02:00,60.0,52.0,29.67,NW,309,7.0,16.0,76,0.00,,,0.00,,2013-05-29 04:02:00,
2013-05-29 06:12:00,60.0,53.0,29.67,NW,304,4.0,13.0,79,0.00,,,0.00,,2013-05-29 04:12:00,
2013-05-29 06:23:00,60.0,53.0,29.67,NW,304,4.0,13.0,79,0.00,,,0.00,,2013-05-29 04:23:00,
2013-05-29 06:32:00,61.0,55.0,29.67,WNW,290,2.0,10.0,80,0.00,,,0.00,,2013-05-29 04:32:00,
2013-05-29 06:42:00,61.0,55.0,29.67,WNW,290,2.0,10.0,80,0.00,,,0.00,,2013-05-29 04:42:00,
2013-05-29 06:52:00,61.0,55.0,29.67,NW,309,4.0,10.0,82,0.00,,,0.00,,2013-05-29 04:52:00,
2013-05-29 07:02:00,61.0,55.0,29.67,NW,309,4.0,10.0,82,0.00,,,0.00,,2013-05-29 05:02:00,
2013-05-29 07:11:00,61.0,55.0,29.67,NW,309,4.0,10.0,82,0.00,,,0.00,,2013-05-29 05:11:00,
2013-05-29 07:22:00,61.0,56.0,29.68,NNW,348,6.0,14.0,83,0.00,,,0.00,,2013-05-29 05:22:00,
2013-05-29 07:32:00,62.0,56.0,29.68,NW,322,6.0,11.0,82,0.00,,,0.00,,2013-05-29 05:32:00,
2013-05-29 07:42:00,62.0,56.0,29.68,NW,322,6.0,11.0,82,0.00,,,0.00,,2013-05-29 05:42:00,
2013-05-29 07:52:00,62.0,56.0,29.69,NNW,327,4.0,15.0,82,0.00,,,0.00,,2013-05-29 05:52:00,
2013-05-29 08:01:00,62.0,56.0,29.69,NNW,327,4.0,15.0,82,0.00,,,0.00,,2013-05-29 06:01:00,
2013-05-29 08:11:00,62.0,56.0,29.69,NNW,327,4.0,15.0,82,0.00,,,0.00,,2013-05-29 06:11:00,
2013-05-29 08:21:00,63.0,56.0,29.69,WNW,286,7.0,13.0,79,0.00,,,0.00,,2013-05-29 06:21:00,
2013-05-29 08:32:00,63.0,56.0,29.69,WNW,286,7.0,13.0,79,0.00,,,0.00,,2013-05-29 06:32:00,
2013-05-29 08:42:00,63.0,56.0,29.69,WNW,286,7.0,13.0,79,0.00,,,0.00,,2013-05-29 06:42:00,
2013-05-29 08:52:00,63.0,56.0,29.69,WNW,286,7.0,13.0,79,0.00,,,0.00,,2013-05-29 06:52:00,
2013-05-29 09:01:00,63.0,56.0,29.70,WNW,302,5.0,11.0,79,0.00,,,0.00,,2013-05-29 07:01:00,
2013-05-29 09:11:00,64.0,57.0,29.70,WNW,300,3.0,10.0,78,0.00,,,0.00,,2013-05-29 07:11:00,
2013-05-29 09:21:00,64.0,57.0,29.70,WNW,300,3.0,10.0,78,0.00,,,0.00,,2013-05-29 07:21:00,
2013-05-29 09:34:00,65.0,57.0,29.71,West,281,3.0,8.0,76,0.00,,,0.00,,2013-05-29 07:34:00,
2013-05-29 09:41:00,65.0,57.0,29.71,West,281,3.0,8.0,76,0.00,,,0.00,,2013-05-29 07:41:00,
2013-05-29 09:52:00,65.0,57.0,29.72,WNW,300,2.0,13.0,76,0.00,,,0.00,,2013-05-29 07:52:00,
2013-05-29 10:02:00,65.0,57.0,29.72,West,268,5.0,10.0,75,0.00,,,0.00,,2013-05-29 08:02:00,
2013-05-29 10:11:00,65.0,57.0,29.72,West,268,5.0,10.0,75,0.00,,,0.00,,2013-05-29 08:11:00,
2013-05-29 10:21:00,65.0,57.0,29.71,West,265,10.0,16.0,76,0.00,,,0.00,,2013-05-29 08:21:00,
2013-05-29 10:31:00,65.0,57.0,29.71,West,265,10.0,16.0,76,0.00,,,0.00,,2013-05-29 08:31:00,
2013-05-29 10:41:00,65.0,57.0,29.71,West,265,10.0,16.0,76,0.00,,,0.00,,2013-05-29 08:41:00,
2013-05-29 10:52:00,64.0,57.0,29.72,West,268,4.0,15.0,77,0.00,,,0.00,,2013-05-29 08:52:00,
2013-05-29 11:01:00,66.0,59.0,29.72,West,275,6.0,15.0,77,0.00,,,0.00,,2013-05-29 09:01:00,
2013-05-29 11:11:00,66.0,59.0,29.72,West,275,6.0,15.0,77,0.00,,,0.00,,2013-05-29 09:11:00,
2013-05-29 11:21:00,65.0,58.0,29.73,SW,233,11.0,12.0,78,0.00,,,0.00,,2013-05-29 09:21:00,
2013-05-29 11:32:00,65.0,58.0,29.73,West,264,10.0,13.0,79,0.00,,,0.00,,2013-05-29 09:32:00,
2013-05-29 11:42:00,65.0,58.0,29.73,West,264,10.0,13.0,79,0.00,,,0.00,,2013-05-29 09:42:00,
2013-05-29 11:52:00,65.0,58.0,29.73,WSW,252,8.0,13.0,79,0.00,,,0.00,,2013-05-29 09:52:00,
2013-05-29 12:02:00,65.0,58.0,29.73,West,260,8.0,11.0,79,0.00,,,0.00,,2013-05-29 10:02:00,
2013-05-29 12:12:00,65.0,58.0,29.73,West,260,8.0,11.0,79,0.00,,,0.00,,2013-05-29 10:12:00,
2013-05-29 12:22:00,65.0,58.0,29.73,West,261,11.0,11.0,79,0.00,,,0.00,,2013-05-29 10:22:00,
2013-05-29 12:32:00,66.0,59.0,29.73,WSW,246,9.0,11.0,79,0.00,,,0.00,,2013-05-29 10:32:00,
2013-05-29 12:42:00,66.0,59.0,29.73,WSW,246,9.0,11.0,79,0.00,,,0.00,,2013-05-29 10:42:00,
2013-05-29 12:53:00,66.0,59.0,29.73,West,271,7.0,12.0,77,0.00,,,0.00,,2013-05-29 10:53:00,
2013-05-29 13:02:00,66.0,59.0,29.73,West,271,7.0,12.0,77,0.00,,,0.00,,2013-05-29 11:02:00,
2013-05-29 13:11:00,66.0,59.0,29.73,West,271,7.0,12.0,77,0.00,,,0.00,,2013-05-29 11:11:00,
2013-05-29 13:21:00,66.0,58.0,29.74,West,259,6.0,11.0,76,0.00,,,0.00,,2013-05-29 11:21:00,
2013-05-29 13:32:00,66.0,58.0,29.74,West,259,6.0,11.0,76,0.00,,,0.00,,2013-05-29 11:32:00,
2013-05-29 13:42:00,66.0,58.0,29.74,West,259,6.0,11.0,76,0.00,,,0.00,,2013-05-29 11:42:00,
2013-05-29 13:52:00,66.0,60.0,29.73,SW,227,10.0,10.0,80,0.00,,,0.00,,2013-05-29 11:52:00,
2013-05-29 14:01:00,65.0,59.0,29.73,WSW,240,12.0,12.0,81,0.00,,,0.00,,2013-05-29 12:01:00,
2013-05-29 14:11:00,65.0,59.0,29.73,WSW,240,12.0,12.0,81,0.00,,,0.00,,2013-05-29 12:11:00,
2013-05-29 14:21:00,66.0,60.0,29.73,SSW,202,6.0,14.0,82,0.00,,,0.00,,2013-05-29 12:21:00,
2013-05-29 14:31:00,66.0,60.0,29.73,SSW,202,6.0,14.0,82,0.00,,,0.00,,2013-05-29 12:31:00,
2013-05-29 14:41:00,66.0,60.0,29.73,SSW,202,6.0,14.0,82,0.00,,,0.00,,2013-05-29 12:41:00,
2013-05-29 14:51:00,65.0,60.0,29.73,South,187,12.0,16.0,83,0.00,,,0.00,,2013-05-29 12:51:00,
2013-05-29 15:01:00,65.0,60.0,29.73,SW,234,9.0,17.0,84,0.00,,,0.00,,2013-05-29 13:01:00,
2013-05-29 15:11:00,65.0,60.0,29.73,SW,234,9.0,17.0,84,0.00,,,0.00,,2013-05-29 13:11:00,
2013-05-29 15:21:00,66.0,60.0,29.73,SW,223,5.0,16.0,81,0.00,,,0.00,,2013-05-29 13:21:00,
2013-05-29 15:31:00,66.0,60.0,29.73,SW,223,5.0,16.0,81,0.00,,,0.00,,2013-05-29 13:31:00,
2013-05-29 15:42:00,66.0,60.0,29.73,SW,223,5.0,16.0,81,0.00,,,0.00,,2013-05-29 13:42:00,
2013-05-29 15:53:00,65.0,59.0,29.72,WSW,238,8.0,13.0,82,0.00,,,0.00,,2013-05-29 13:53:00,
2013-05-29 16:01:00,65.0,59.0,29.72,WSW,238,8.0,13.0,82,0.00,,,0.00,,2013-05-29 14:01:00,
2013-05-29 16:11:00,65.0,59.0,29.72,WSW,238,8.0,13.0,82,0.00,,,0.00,,2013-05-29 14:11:00,
2013-05-29 16:21:00,66.0,60.0,29.72,SW,231,8.0,9.0,80,0.00,,,0.00,,2013-05-29 14:21:00,
2013-05-29 16:31:00,66.0,60.0,29.72,SW,231,8.0,9.0,80,0.00,,,0.00,,2013-05-29 14:31:00,
2013-05-29 16:42:00,66.0,60.0,29.72,SW,231,8.0,9.0,80,0.00,,,0.00,,2013-05-29 14:42:00,
2013-05-29 16:52:00,66.0,59.0,29.72,SW,234,11.0,12.0,78,0.00,,,0.00,,2013-05-29 14:52:00,
2013-05-29 17:01:00,66.0,59.0,29.72,SW,234,11.0,12.0,78,0.00,,,0.00,,2013-05-29 15:01:00,
2013-05-29 17:11:00,65.0,59.0,29.72,WSW,253,6.0,11.0,81,0.00,,,0.00,,2013-05-29 15:11:00,
2013-05-29 17:21:00,65.0,59.0,29.72,WSW,253,6.0,11.0,81,0.00,,,0.00,,2013-05-29 15:21:00,
2013-05-29 17:32:00,65.0,59.0,29.72,SW,228,10.0,12.0,80,0.00,,,0.00,,2013-05-29 15:32:00,
2013-05-29 17:43:00,65.0,59.0,29.72,SW,228,10.0,12.0,80,0.00,,,0.00,,2013-05-29 15:43:00,
2013-05-29 17:53:00,65.0,59.0,29.72,SW,218,7.0,8.0,82,0.00,,,0.00,,2013-05-29 15:53:00,
2013-05-29 18:03:00,65.0,60.0,29.71,SW,234,5.0,8.0,83,0.00,,,0.00,,2013-05-29 16:03:00,
2013-05-29 18:12:00,65.0,60.0,29.71,SW,234,5.0,8.0,83,0.00,,,0.00,,2013-05-29 16:12:00,
2013-05-29 18:22:00,65.0,60.0,29.71,SW,234,5.0,8.0,83,0.00,,,0.00,,2013-05-29 16:22:00,
2013-05-29 18:32:00,65.0,60.0,29.71,WSW,248,5.0,12.0,85,0.00,,,0.00,,2013-05-29 16:32:00,
2013-05-29 18:42:00,65.0,60.0,29.71,WSW,248,5.0,12.0,85,0.00,,,0.00,,2013-05-29 16:42:00,
2013-05-29 18:52:00,64.0,59.0,29.71,West,261,3.0,11.0,84,0.00,,,0.00,,2013-05-29 16:52:00,
2013-05-29 19:02:00,64.0,59.0,29.71,West,261,3.0,11.0,84,0.00,,,0.00,,2013-05-29 17:02:00,
2013-05-29 19:11:00,64.0,59.0,29.71,West,261,3.0,11.0,84,0.00,,,0.00,,2013-05-29 17:11:00,
2013-05-29 19:21:00,65.0,60.0,29.71,West,267,4.0,12.0,85,0.00,,,0.00,,2013-05-29 17:21:00,
2013-05-29 19:32:00,64.0,60.0,29.71,WSW,252,4.0,8.0,86,0.00,,,0.00,,2013-05-29 17:32:00,
2013-05-29 19:42:00,64.0,60.0,29.71,WSW,252,4.0,8.0,86,0.00,,,0.00,,2013-05-29 17:42:00,
2013-05-29 19:52:00,64.0,60.0,29.71,WSW,252,4.0,8.0,86,0.00,,,0.00,,2013-05-29 17:52:00,
2013-05-29 20:01:00,64.0,60.0,29.71,WSW,252,4.0,8.0,86,0.00,,,0.00,,2013-05-29 18:01:00,
2013-05-29 20:13:00,62.0,58.0,29.72,NW,311,10.0,11.0,87,0.00,,,0.00,,2013-05-29 18:13:00,
2013-05-29 20:22:00,62.0,58.0,29.72,NW,311,10.0,11.0,87,0.00,,,0.00,,2013-05-29 18:22:00,
2013-05-29 20:32:00,62.0,55.0,29.72,NW,315,5.0,10.0,79,0.00,,,0.00,,2013-05-29 18:32:00,
2013-05-29 20:41:00,62.0,55.0,29.72,NW,315,5.0,10.0,79,0.00,,,0.00,,2013-05-29 18:41:00,
2013-05-29 20:51:00,62.0,55.0,29.72,NW,315,5.0,10.0,79,0.00,,,0.00,,2013-05-29 18:51:00,
2013-05-29 21:01:00,61.0,53.0,29.72,NW,306,3.0,7.0,74,0.00,,,0.00,,2013-05-29 19:01:00,
2013-05-29 21:11:00,61.0,53.0,29.72,NW,306,3.0,7.0,74,0.00,,,0.00,,2013-05-29 19:11:00,
2013-05-29 21:21:00,61.0,53.0,29.72,NW,306,3.0,7.0,74,0.00,,,0.00,,2013-05-29 19:21:00,
2013-05-29 21:32:00,61.0,51.0,29.72,WNW,298,4.0,8.0,69,0.00,,,0.00,,2013-05-29 19:32:00,
2013-05-29 21:44:00,61.0,52.0,29.72,NW,318,3.0,7.0,72,0.00,,,0.00,,2013-05-29 19:44:00,
2013-05-29 21:53:00,61.0,52.0,29.72,NW,318,3.0,7.0,72,0.00,,,0.00,,2013-05-29 19:53:00,
2013-05-29 22:02:00,61.0,53.0,29.72,NW,308,3.0,5.0,75,0.00,,,0.00,,2013-05-29 20:02:00,
2013-05-29 22:11:00,60.0,53.0,29.73,NW,307,2.0,4.0,77,0.00,,,0.00,,2013-05-29 20:11:00,
2013-05-29 22:22:00,60.0,53.0,29.73,NW,307,2.0,4.0,77,0.00,,,0.00,,2013-05-29 20:22:00,
2013-05-29 22:32:00,60.0,53.0,29.73,NW,309,1.0,4.0,77,0.00,,,0.00,,2013-05-29 20:32:00,
2013-05-29 22:41:00,60.0,53.0,29.73,NW,309,1.0,4.0,77,0.00,,,0.00,,2013-05-29 20:41:00,
2013-05-29 22:52:00,60.0,53.0,29.73,NW,309,1.0,3.0,78,0.00,,,0.00,,2013-05-29 20:52:00,
2013-05-29 23:02:00,60.0,53.0,29.73,NW,309,1.0,3.0,78,0.00,,,0.00,,2013-05-29 21:02:00,
2013-05-29 23:12:00,60.0,53.0,29.73,NW,309,1.0,3.0,78,0.00,,,0.00,,2013-05-29 21:12:00,
2013-05-29 23:22:00,60.0,53.0,29.74,WNW,302,2.0,3.0,77,0.00,,,0.00,,2013-05-29 21:22:00,
2013-05-29 23:33:00,60.0,52.0,29.75,WNW,302,2.0,5.0,76,0.00,,,0.00,,2013-05-29 21:33:00,
2013-05-29 23:43:00,60.0,52.0,29.75,WNW,302,2.0,5.0,76,0.00,,,0.00,,2013-05-29 21:43:00,
2013-05-29 23:53:00,60.0,52.0,29.75,WNW,303,3.0,3.0,75,0.00,,,0.00,,2013-05-29 21:53:00,